AXB123 VABB-VAAH
Flight info
| Callsign | AXB123 |
|---|---|
| Flight time | 1h 3m |
| Altitude | 35000 |
| Route | ANOLI2A ISRIS G208 APANO APANO1A |
| Aircraft | B738/M-SDE2E3FGHIRWXY/LB1 |
Departure
| Time | 2026-05-08 11:31 |
|---|---|
| Airport | Chhatrapati Shivaji Maharaj International Airport (VABB) |
Arrival
| Time | 2026-05-08 12:35 |
|---|---|
| Airport | Sardar Vallabh Patel International Airport (VAAH) |
| Time | Latitude | Longitude | Altitude | Speed | Heading |
|---|---|---|---|---|---|
| 2026-05-08 10:39 | 19.09333 | 72.87153 | 37 ft | 0 kts | 359° |
| 2026-05-08 10:54 | 19.09329 | 72.87217 | 37 ft | 0 kts | 340° |
| 2026-05-08 11:20 | 19.09316 | 72.87222 | 37 ft | 2 kts | 340° |
| 2026-05-08 11:21 | 19.09302 | 72.87228 | 36 ft | 2 kts | 340° |
| 2026-05-08 11:21 | 19.09288 | 72.87233 | 35 ft | 2 kts | 349° |
| 2026-05-08 11:21 | 19.09273 | 72.87233 | 34 ft | 2 kts | 11° |
| 2026-05-08 11:21 | 19.09258 | 72.87228 | 34 ft | 2 kts | 30° |
| 2026-05-08 11:22 | 19.09246 | 72.87219 | 33 ft | 2 kts | 50° |
| 2026-05-08 11:22 | 19.09238 | 72.87205 | 33 ft | 2 kts | 69° |
| 2026-05-08 11:22 | 19.09235 | 72.87191 | 33 ft | 0 kts | 86° |
| 2026-05-08 11:22 | 19.09235 | 72.87184 | 33 ft | 1 kts | 90° |
| 2026-05-08 11:23 | 19.09235 | 72.87183 | 33 ft | 0 kts | 90° |
| 2026-05-08 11:27 | 19.09235 | 72.87193 | 33 ft | 2 kts | 89° |
| 2026-05-08 11:27 | 19.09236 | 72.87215 | 33 ft | 0 kts | 86° |
| 2026-05-08 11:27 | 19.09236 | 72.87226 | 33 ft | 6 kts | 99° |
| 2026-05-08 11:28 | 19.09171 | 72.87260 | 30 ft | 14 kts | 178° |
| 2026-05-08 11:28 | 19.09069 | 72.87283 | 27 ft | 16 kts | 131° |
| 2026-05-08 11:28 | 19.09055 | 72.87402 | 27 ft | 16 kts | 90° |
| 2026-05-08 11:28 | 19.09056 | 72.87524 | 27 ft | 18 kts | 92° |
| 2026-05-08 11:29 | 19.09057 | 72.87670 | 29 ft | 19 kts | 92° |
| 2026-05-08 11:29 | 19.09055 | 72.87808 | 31 ft | 18 kts | 88° |
| 2026-05-08 11:29 | 19.09060 | 72.87940 | 35 ft | 16 kts | 90° |
| 2026-05-08 11:29 | 19.09036 | 72.88044 | 37 ft | 12 kts | 160° |
| 2026-05-08 11:30 | 19.08974 | 72.88036 | 38 ft | 9 kts | 174° |
| 2026-05-08 11:30 | 19.08901 | 72.88006 | 37 ft | 16 kts | 241° |
| 2026-05-08 11:30 | 19.08886 | 72.87878 | 34 ft | 19 kts | 269° |
| 2026-05-08 11:30 | 19.08884 | 72.87607 | 28 ft | 74 kts | 270° |
| 2026-05-08 11:31 | 19.08873 | 72.86762 | 28 ft | 150 kts | 269° |
| 2026-05-08 11:31 | 19.08836 | 72.85521 | 472 ft | 176 kts | 271° |
| 2026-05-08 11:31 | 19.08827 | 72.84256 | 1485 ft | 183 kts | 275° |
| 2026-05-08 11:31 | 19.08833 | 72.82912 | 2510 ft | 198 kts | 275° |
| 2026-05-08 11:32 | 19.08823 | 72.81405 | 3479 ft | 220 kts | 272° |
| 2026-05-08 11:32 | 19.08800 | 72.79739 | 4448 ft | 241 kts | 274° |
| 2026-05-08 11:32 | 19.09046 | 72.77934 | 5410 ft | 260 kts | 292° |
| 2026-05-08 11:32 | 19.10059 | 72.76318 | 6354 ft | 276 kts | 320° |
| 2026-05-08 11:33 | 19.11725 | 72.75262 | 7396 ft | 287 kts | 342° |
| 2026-05-08 11:33 | 19.13641 | 72.74771 | 8565 ft | 293 kts | 355° |
| 2026-05-08 11:33 | 19.15666 | 72.74602 | 9772 ft | 298 kts | 0° |
| 2026-05-08 11:33 | 19.17772 | 72.74526 | 10854 ft | 310 kts | 1° |
| 2026-05-08 11:34 | 19.19952 | 72.74451 | 12007 ft | 318 kts | 360° |
| 2026-05-08 11:34 | 19.22158 | 72.74485 | 13213 ft | 321 kts | 6° |
| 2026-05-08 11:34 | 19.24364 | 72.74763 | 14408 ft | 324 kts | 10° |
| 2026-05-08 11:34 | 19.26582 | 72.75130 | 15552 ft | 328 kts | 10° |
| 2026-05-08 11:35 | 19.28829 | 72.75494 | 16660 ft | 331 kts | 9° |
| 2026-05-08 11:35 | 19.31118 | 72.75837 | 17683 ft | 336 kts | 9° |
| 2026-05-08 11:35 | 19.33436 | 72.76158 | 18701 ft | 339 kts | 7° |
| 2026-05-08 11:35 | 19.35779 | 72.76466 | 19596 ft | 344 kts | 6° |
| 2026-05-08 11:36 | 19.38179 | 72.76774 | 20506 ft | 347 kts | 6° |
| 2026-05-08 11:36 | 19.40565 | 72.77076 | 21369 ft | 350 kts | 5° |
| 2026-05-08 11:36 | 19.43001 | 72.77383 | 22168 ft | 354 kts | 4° |
| 2026-05-08 11:36 | 19.45461 | 72.77694 | 22982 ft | 359 kts | 4° |
| 2026-05-08 11:37 | 19.47942 | 72.78008 | 23761 ft | 364 kts | 4° |
| 2026-05-08 11:37 | 19.50474 | 72.78329 | 24574 ft | 367 kts | 4° |
| 2026-05-08 11:37 | 19.52991 | 72.78652 | 25313 ft | 371 kts | 4° |
| 2026-05-08 11:37 | 19.55589 | 72.78986 | 26076 ft | 375 kts | 4° |
| 2026-05-08 11:38 | 19.58196 | 72.79322 | 26790 ft | 379 kts | 4° |
| 2026-05-08 11:38 | 19.60803 | 72.79658 | 27494 ft | 382 kts | 4° |
| 2026-05-08 11:38 | 19.63450 | 72.79999 | 28188 ft | 385 kts | 4° |
| 2026-05-08 11:38 | 19.66140 | 72.80345 | 28877 ft | 388 kts | 4° |
| 2026-05-08 11:39 | 19.68816 | 72.80688 | 29411 ft | 394 kts | 4° |
| 2026-05-08 11:39 | 19.71557 | 72.81039 | 29996 ft | 399 kts | 4° |
| 2026-05-08 11:39 | 19.74358 | 72.81399 | 30605 ft | 404 kts | 4° |
| 2026-05-08 11:39 | 19.77149 | 72.81759 | 31193 ft | 407 kts | 4° |
| 2026-05-08 11:40 | 19.79963 | 72.82123 | 31761 ft | 411 kts | 4° |
| 2026-05-08 11:40 | 19.82824 | 72.82492 | 32279 ft | 416 kts | 4° |
| 2026-05-08 11:40 | 19.85739 | 72.82868 | 32860 ft | 420 kts | 4° |
| 2026-05-08 11:40 | 19.88658 | 72.83244 | 33334 ft | 426 kts | 4° |
| 2026-05-08 11:41 | 19.91597 | 72.83624 | 33865 ft | 430 kts | 4° |
| 2026-05-08 11:41 | 19.94591 | 72.84010 | 34388 ft | 435 kts | 4° |
| 2026-05-08 11:41 | 19.97636 | 72.84403 | 34785 ft | 440 kts | 4° |
| 2026-05-08 11:42 | 20.03676 | 72.85188 | 34777 ft | 433 kts | 4° |
| 2026-05-08 11:42 | 20.09695 | 72.85974 | 34771 ft | 433 kts | 4° |
| 2026-05-08 11:43 | 20.15696 | 72.86755 | 34769 ft | 433 kts | 4° |
| 2026-05-08 11:43 | 20.21687 | 72.87533 | 34765 ft | 432 kts | 4° |
| 2026-05-08 11:44 | 20.27663 | 72.88309 | 34756 ft | 431 kts | 4° |
| 2026-05-08 11:44 | 20.33637 | 72.89086 | 34760 ft | 432 kts | 4° |
| 2026-05-08 11:45 | 20.39597 | 72.89863 | 34757 ft | 431 kts | 4° |
| 2026-05-08 11:45 | 20.45592 | 72.90642 | 34748 ft | 432 kts | 4° |
| 2026-05-08 11:46 | 20.51542 | 72.91419 | 34746 ft | 431 kts | 4° |
| 2026-05-08 11:46 | 20.57524 | 72.92199 | 34750 ft | 430 kts | 4° |
| 2026-05-08 11:47 | 20.63468 | 72.92975 | 34746 ft | 430 kts | 4° |
| 2026-05-08 11:47 | 20.69413 | 72.93752 | 34743 ft | 430 kts | 4° |
| 2026-05-08 11:48 | 20.75352 | 72.94526 | 34742 ft | 431 kts | 3° |
| 2026-05-08 11:48 | 20.81326 | 72.94968 | 34745 ft | 428 kts | 359° |
| 2026-05-08 11:49 | 20.87257 | 72.95132 | 34744 ft | 428 kts | 358° |
| 2026-05-08 11:49 | 20.93223 | 72.95286 | 34749 ft | 427 kts | 358° |
| 2026-05-08 11:50 | 20.99185 | 72.95470 | 34749 ft | 427 kts | 358° |
| 2026-05-08 11:50 | 21.05126 | 72.95674 | 34745 ft | 428 kts | 358° |
| 2026-05-08 11:51 | 21.11095 | 72.95885 | 34752 ft | 427 kts | 358° |
| 2026-05-08 11:51 | 21.17067 | 72.96101 | 34746 ft | 425 kts | 358° |
| 2026-05-08 11:51 | 21.20000 | 72.96214 | 34555 ft | 418 kts | 358° |
| 2026-05-08 11:52 | 21.22879 | 72.96350 | 34131 ft | 412 kts | 359° |
| 2026-05-08 11:52 | 21.25754 | 72.96501 | 33606 ft | 410 kts | 359° |
| 2026-05-08 11:52 | 21.28588 | 72.96658 | 33156 ft | 403 kts | 359° |
| 2026-05-08 11:52 | 21.31392 | 72.96813 | 32654 ft | 404 kts | 359° |
| 2026-05-08 11:53 | 21.34178 | 72.96963 | 32152 ft | 406 kts | 359° |
| 2026-05-08 11:53 | 21.37008 | 72.97115 | 31619 ft | 401 kts | 359° |
| 2026-05-08 11:53 | 21.39786 | 72.97266 | 31077 ft | 397 kts | 359° |
| 2026-05-08 11:53 | 21.42536 | 72.97414 | 30537 ft | 392 kts | 359° |
| 2026-05-08 11:54 | 21.45227 | 72.97555 | 30002 ft | 387 kts | 359° |
| 2026-05-08 11:54 | 21.47913 | 72.97696 | 29464 ft | 383 kts | 359° |
| 2026-05-08 11:54 | 21.50542 | 72.97835 | 28938 ft | 378 kts | 359° |
| 2026-05-08 11:54 | 21.53147 | 72.97968 | 28443 ft | 372 kts | 358° |
| 2026-05-08 11:55 | 21.55718 | 72.97968 | 28157 ft | 363 kts | 355° |
| 2026-05-08 11:55 | 21.58243 | 72.97831 | 27913 ft | 361 kts | 353° |
| 2026-05-08 11:55 | 21.60720 | 72.97651 | 27671 ft | 360 kts | 353° |
| 2026-05-08 11:55 | 21.63253 | 72.97470 | 27424 ft | 359 kts | 353° |
| 2026-05-08 11:56 | 21.65720 | 72.97311 | 27184 ft | 358 kts | 353° |
| 2026-05-08 11:56 | 21.68216 | 72.97166 | 26937 ft | 358 kts | 354° |
| 2026-05-08 11:56 | 21.70728 | 72.97034 | 26691 ft | 358 kts | 354° |
| 2026-05-08 11:56 | 21.73212 | 72.96910 | 26453 ft | 361 kts | 354° |
| 2026-05-08 11:57 | 21.75741 | 72.96788 | 26206 ft | 358 kts | 354° |
| 2026-05-08 11:57 | 21.78245 | 72.96670 | 25961 ft | 354 kts | 354° |
| 2026-05-08 11:57 | 21.80671 | 72.96556 | 25706 ft | 353 kts | 354° |
| 2026-05-08 11:57 | 21.83127 | 72.96441 | 25334 ft | 349 kts | 354° |
| 2026-05-08 11:58 | 21.85554 | 72.96327 | 24864 ft | 344 kts | 354° |
| 2026-05-08 11:58 | 21.87914 | 72.96217 | 24382 ft | 340 kts | 354° |
| 2026-05-08 11:58 | 21.90273 | 72.96107 | 23914 ft | 338 kts | 354° |
| 2026-05-08 11:59 | 21.95043 | 72.95882 | 22942 ft | 343 kts | 354° |
| 2026-05-08 11:59 | 21.97430 | 72.95772 | 22473 ft | 338 kts | 355° |
| 2026-05-08 11:59 | 21.99762 | 72.95664 | 22020 ft | 333 kts | 354° |
| 2026-05-08 11:59 | 22.02068 | 72.95557 | 21577 ft | 331 kts | 355° |
| 2026-05-08 12:00 | 22.04394 | 72.95446 | 21134 ft | 338 kts | 355° |
| 2026-05-08 12:00 | 22.06756 | 72.95334 | 20671 ft | 337 kts | 355° |
| 2026-05-08 12:00 | 22.09079 | 72.95226 | 20213 ft | 332 kts | 355° |
| 2026-05-08 12:00 | 22.11380 | 72.95120 | 19757 ft | 329 kts | 355° |
| 2026-05-08 12:01 | 22.13661 | 72.95015 | 19303 ft | 325 kts | 355° |
| 2026-05-08 12:01 | 22.15935 | 72.94909 | 18858 ft | 323 kts | 356° |
| 2026-05-08 12:01 | 22.18194 | 72.94803 | 18403 ft | 326 kts | 356° |
| 2026-05-08 12:01 | 22.20453 | 72.94699 | 17961 ft | 322 kts | 356° |
| 2026-05-08 12:02 | 22.22680 | 72.94597 | 17523 ft | 320 kts | 356° |
| 2026-05-08 12:02 | 22.24926 | 72.94492 | 17083 ft | 328 kts | 356° |
| 2026-05-08 12:02 | 22.27202 | 72.94385 | 16635 ft | 326 kts | 357° |
| 2026-05-08 12:02 | 22.29455 | 72.94280 | 16197 ft | 322 kts | 357° |
| 2026-05-08 12:03 | 22.31675 | 72.94175 | 15767 ft | 318 kts | 357° |
| 2026-05-08 12:03 | 22.33904 | 72.94070 | 15340 ft | 315 kts | 357° |
| 2026-05-08 12:03 | 22.36093 | 72.93967 | 14914 ft | 320 kts | 357° |
| 2026-05-08 12:03 | 22.38326 | 72.93862 | 14487 ft | 319 kts | 358° |
| 2026-05-08 12:04 | 22.40546 | 72.93758 | 14055 ft | 316 kts | 358° |
| 2026-05-08 12:04 | 22.42718 | 72.93655 | 13633 ft | 312 kts | 358° |
| 2026-05-08 12:04 | 22.44873 | 72.93553 | 13212 ft | 309 kts | 358° |
| 2026-05-08 12:04 | 22.47050 | 72.93450 | 12790 ft | 314 kts | 358° |
| 2026-05-08 12:05 | 22.49258 | 72.93346 | 12352 ft | 315 kts | 358° |
| 2026-05-08 12:05 | 22.51432 | 72.93242 | 11929 ft | 311 kts | 358° |
| 2026-05-08 12:05 | 22.53577 | 72.93140 | 11511 ft | 308 kts | 358° |
| 2026-05-08 12:05 | 22.55711 | 72.93039 | 11094 ft | 305 kts | 358° |
| 2026-05-08 12:06 | 22.57812 | 72.92940 | 10677 ft | 302 kts | 358° |
| 2026-05-08 12:06 | 22.59934 | 72.92841 | 10260 ft | 299 kts | 357° |
| 2026-05-08 12:06 | 22.61987 | 72.92746 | 9931 ft | 294 kts | 357° |
| 2026-05-08 12:06 | 22.63991 | 72.92652 | 9757 ft | 283 kts | 357° |
| 2026-05-08 12:07 | 22.65952 | 72.92560 | 9448 ft | 279 kts | 357° |
| 2026-05-08 12:07 | 22.67880 | 72.92468 | 9074 ft | 277 kts | 356° |
| 2026-05-08 12:07 | 22.69806 | 72.92378 | 8725 ft | 275 kts | 356° |
| 2026-05-08 12:07 | 22.71725 | 72.92287 | 8380 ft | 272 kts | 356° |
| 2026-05-08 12:08 | 22.73610 | 72.92197 | 8042 ft | 270 kts | 356° |
| 2026-05-08 12:08 | 22.75471 | 72.92108 | 7711 ft | 268 kts | 356° |
| 2026-05-08 12:08 | 22.77351 | 72.92019 | 7372 ft | 269 kts | 356° |
| 2026-05-08 12:08 | 22.79219 | 72.91930 | 7036 ft | 272 kts | 356° |
| 2026-05-08 12:09 | 22.81118 | 72.91841 | 6692 ft | 270 kts | 356° |
| 2026-05-08 12:09 | 22.82976 | 72.91753 | 6358 ft | 267 kts | 356° |
| 2026-05-08 12:09 | 22.84844 | 72.91665 | 6023 ft | 265 kts | 356° |
| 2026-05-08 12:09 | 22.86666 | 72.91578 | 5694 ft | 262 kts | 356° |
| 2026-05-08 12:10 | 22.88496 | 72.91490 | 5347 ft | 261 kts | 356° |
| 2026-05-08 12:10 | 22.90309 | 72.91405 | 4933 ft | 262 kts | 356° |
| 2026-05-08 12:10 | 22.92122 | 72.91319 | 4683 ft | 257 kts | 356° |
| 2026-05-08 12:10 | 22.93911 | 72.91234 | 4377 ft | 259 kts | 356° |
| 2026-05-08 12:11 | 22.95724 | 72.91146 | 4044 ft | 261 kts | 356° |
| 2026-05-08 12:11 | 22.97540 | 72.91060 | 3708 ft | 258 kts | 356° |
| 2026-05-08 12:11 | 22.99333 | 72.90974 | 3376 ft | 256 kts | 356° |
| 2026-05-08 12:11 | 23.01106 | 72.90891 | 3050 ft | 254 kts | 356° |
| 2026-05-08 12:12 | 23.02885 | 72.90807 | 2788 ft | 254 kts | 356° |
| 2026-05-08 12:12 | 23.04660 | 72.90723 | 2559 ft | 255 kts | 355° |
| 2026-05-08 12:12 | 23.06438 | 72.90638 | 2330 ft | 255 kts | 355° |
| 2026-05-08 12:12 | 23.08210 | 72.90553 | 2106 ft | 255 kts | 355° |
| 2026-05-08 12:13 | 23.09977 | 72.90469 | 2046 ft | 252 kts | 355° |
| 2026-05-08 12:13 | 23.11726 | 72.90385 | 2044 ft | 245 kts | 355° |
| 2026-05-08 12:13 | 23.13380 | 72.90308 | 2043 ft | 230 kts | 355° |
| 2026-05-08 12:13 | 23.14945 | 72.90236 | 2042 ft | 216 kts | 355° |
| 2026-05-08 12:14 | 23.16402 | 72.90167 | 2040 ft | 201 kts | 353° |
| 2026-05-08 12:14 | 23.17722 | 72.89798 | 2039 ft | 194 kts | 331° |
| 2026-05-08 12:14 | 23.18793 | 72.88929 | 2048 ft | 192 kts | 316° |
| 2026-05-08 12:14 | 23.19772 | 72.87948 | 2058 ft | 186 kts | 316° |
| 2026-05-08 12:15 | 23.20695 | 72.87032 | 2040 ft | 173 kts | 316° |
| 2026-05-08 12:15 | 23.21554 | 72.86128 | 2039 ft | 173 kts | 306° |
| 2026-05-08 12:15 | 23.21906 | 72.84902 | 2041 ft | 172 kts | 269° |
| 2026-05-08 12:15 | 23.21748 | 72.83607 | 2045 ft | 174 kts | 262° |
| 2026-05-08 12:16 | 23.21581 | 72.82304 | 2042 ft | 172 kts | 263° |
| 2026-05-08 12:16 | 23.21422 | 72.81010 | 2042 ft | 173 kts | 264° |
| 2026-05-08 12:16 | 23.21260 | 72.79721 | 2043 ft | 172 kts | 263° |
| 2026-05-08 12:16 | 23.21049 | 72.78433 | 2040 ft | 174 kts | 252° |
| 2026-05-08 12:17 | 23.20409 | 72.77312 | 2043 ft | 175 kts | 233° |
| 2026-05-08 12:17 | 23.19616 | 72.76302 | 2044 ft | 175 kts | 231° |
| 2026-05-08 12:17 | 23.18788 | 72.75319 | 2043 ft | 176 kts | 229° |
| 2026-05-08 12:17 | 23.17936 | 72.74370 | 2042 ft | 175 kts | 228° |
| 2026-05-08 12:18 | 23.17078 | 72.73436 | 2052 ft | 168 kts | 227° |
| 2026-05-08 12:18 | 23.16266 | 72.72561 | 2039 ft | 163 kts | 227° |
| 2026-05-08 12:18 | 23.15463 | 72.71699 | 1920 ft | 159 kts | 227° |
| 2026-05-08 12:18 | 23.14683 | 72.70866 | 1692 ft | 153 kts | 227° |
| 2026-05-08 12:19 | 23.13926 | 72.70060 | 1506 ft | 152 kts | 227° |
| 2026-05-08 12:19 | 23.13167 | 72.69251 | 1316 ft | 153 kts | 226° |
| 2026-05-08 12:19 | 23.12413 | 72.68449 | 1127 ft | 152 kts | 226° |
| 2026-05-08 12:19 | 23.11668 | 72.67654 | 941 ft | 150 kts | 225° |
| 2026-05-08 12:20 | 23.10912 | 72.66848 | 752 ft | 150 kts | 225° |
| 2026-05-08 12:20 | 23.10146 | 72.66032 | 565 ft | 157 kts | 224° |
| 2026-05-08 12:20 | 23.09364 | 72.65198 | 372 ft | 154 kts | 224° |
| 2026-05-08 12:20 | 23.08593 | 72.64372 | 211 ft | 153 kts | 223° |
| 2026-05-08 12:21 | 23.07892 | 72.63621 | 193 ft | 131 kts | 223° |
| 2026-05-08 12:21 | 23.07250 | 72.62930 | 316 ft | 142 kts | 222° |
| 2026-05-08 12:21 | 23.06529 | 72.62170 | 1086 ft | 160 kts | 226° |
| 2026-05-08 12:21 | 23.05709 | 72.61243 | 1788 ft | 188 kts | 229° |
| 2026-05-08 12:22 | 23.04719 | 72.60194 | 1991 ft | 210 kts | 226° |
| 2026-05-08 12:22 | 23.03637 | 72.59077 | 1993 ft | 216 kts | 225° |
| 2026-05-08 12:22 | 23.02532 | 72.57948 | 1988 ft | 220 kts | 225° |
| 2026-05-08 12:22 | 23.01411 | 72.56807 | 1983 ft | 220 kts | 222° |
| 2026-05-08 12:23 | 23.00061 | 72.56051 | 1979 ft | 225 kts | 193° |
| 2026-05-08 12:23 | 22.98494 | 72.56187 | 1981 ft | 229 kts | 160° |
| 2026-05-08 12:23 | 22.97233 | 72.57214 | 1980 ft | 231 kts | 127° |
| 2026-05-08 12:23 | 22.96662 | 72.58830 | 1980 ft | 232 kts | 93° |
| 2026-05-08 12:24 | 22.96973 | 72.60511 | 1981 ft | 229 kts | 60° |
| 2026-05-08 12:24 | 22.97891 | 72.61933 | 1985 ft | 228 kts | 50° |
| 2026-05-08 12:24 | 22.98898 | 72.63262 | 1981 ft | 228 kts | 47° |
| 2026-05-08 12:24 | 22.99954 | 72.64546 | 1980 ft | 227 kts | 45° |
| 2026-05-08 12:25 | 23.01023 | 72.65821 | 1981 ft | 228 kts | 45° |
| 2026-05-08 12:25 | 23.02078 | 72.67079 | 1981 ft | 227 kts | 46° |
| 2026-05-08 12:25 | 23.03147 | 72.68351 | 1982 ft | 227 kts | 45° |
| 2026-05-08 12:25 | 23.04227 | 72.69635 | 1983 ft | 228 kts | 46° |
| 2026-05-08 12:26 | 23.05295 | 72.70902 | 1984 ft | 227 kts | 46° |
| 2026-05-08 12:26 | 23.06370 | 72.72169 | 1986 ft | 227 kts | 45° |
| 2026-05-08 12:26 | 23.07433 | 72.73368 | 1986 ft | 213 kts | 44° |
| 2026-05-08 12:26 | 23.08431 | 72.74473 | 1997 ft | 198 kts | 43° |
| 2026-05-08 12:27 | 23.09355 | 72.75499 | 1986 ft | 183 kts | 43° |
| 2026-05-08 12:27 | 23.10233 | 72.76479 | 1844 ft | 178 kts | 43° |
| 2026-05-08 12:27 | 23.11094 | 72.77447 | 1692 ft | 177 kts | 43° |
| 2026-05-08 12:27 | 23.11952 | 72.78430 | 1694 ft | 188 kts | 49° |
| 2026-05-08 12:28 | 23.12760 | 72.79541 | 1686 ft | 182 kts | 46° |
| 2026-05-08 12:28 | 23.13624 | 72.80544 | 1687 ft | 181 kts | 43° |
| 2026-05-08 12:28 | 23.14496 | 72.81535 | 1686 ft | 180 kts | 43° |
| 2026-05-08 12:28 | 23.15370 | 72.82528 | 1686 ft | 181 kts | 43° |
| 2026-05-08 12:29 | 23.16246 | 72.83526 | 1685 ft | 181 kts | 43° |
| 2026-05-08 12:29 | 23.17173 | 72.84443 | 1684 ft | 179 kts | 30° |
| 2026-05-08 12:29 | 23.18335 | 72.84780 | 1686 ft | 173 kts | 351° |
| 2026-05-08 12:29 | 23.19372 | 72.84211 | 1688 ft | 168 kts | 309° |
| 2026-05-08 12:30 | 23.19915 | 72.83096 | 1695 ft | 167 kts | 297° |
| 2026-05-08 12:30 | 23.20439 | 72.81976 | 1692 ft | 167 kts | 285° |
| 2026-05-08 12:30 | 23.20527 | 72.80718 | 1705 ft | 173 kts | 272° |
| 2026-05-08 12:30 | 23.20581 | 72.79304 | 1703 ft | 190 kts | 274° |
| 2026-05-08 12:31 | 23.20604 | 72.77943 | 1694 ft | 175 kts | 265° |
| 2026-05-08 12:31 | 23.20238 | 72.76706 | 1699 ft | 171 kts | 244° |
| 2026-05-08 12:31 | 23.19592 | 72.75625 | 1700 ft | 172 kts | 235° |
| 2026-05-08 12:31 | 23.18796 | 72.74650 | 1700 ft | 172 kts | 228° |
| 2026-05-08 12:32 | 23.17916 | 72.73743 | 1700 ft | 172 kts | 225° |
| 2026-05-08 12:32 | 23.17033 | 72.72863 | 1700 ft | 172 kts | 226° |
| 2026-05-08 12:32 | 23.16176 | 72.72006 | 1710 ft | 164 kts | 226° |
| 2026-05-08 12:32 | 23.15352 | 72.71179 | 1713 ft | 156 kts | 226° |
| 2026-05-08 12:33 | 23.14543 | 72.70389 | 1695 ft | 153 kts | 224° |
| 2026-05-08 12:33 | 23.13712 | 72.69639 | 1575 ft | 156 kts | 224° |
| 2026-05-08 12:33 | 23.12911 | 72.68870 | 1339 ft | 153 kts | 225° |
| 2026-05-08 12:33 | 23.12132 | 72.68089 | 1126 ft | 152 kts | 224° |
| 2026-05-08 12:34 | 23.11353 | 72.67308 | 917 ft | 151 kts | 224° |
| 2026-05-08 12:34 | 23.10590 | 72.66544 | 716 ft | 150 kts | 223° |
| 2026-05-08 12:34 | 23.09816 | 72.65770 | 514 ft | 151 kts | 222° |
| 2026-05-08 12:34 | 23.09110 | 72.64925 | 313 ft | 153 kts | 226° |
| 2026-05-08 12:35 | 23.08370 | 72.64129 | 189 ft | 135 kts | 224° |
| 2026-05-08 12:35 | 23.07910 | 72.63638 | 190 ft | 47 kts | 223° |
| 2026-05-08 12:35 | 23.07729 | 72.63426 | 189 ft | 24 kts | 255° |
| 2026-05-08 12:35 | 23.07696 | 72.63258 | 188 ft | 23 kts | 254° |
| 2026-05-08 12:36 | 23.07679 | 72.63197 | 187 ft | 0 kts | 252° |
| 2026-05-08 12:36 | 23.07678 | 72.63193 | 187 ft | 2 kts | 252° |
| 2026-05-08 12:36 | 23.07655 | 72.63127 | 186 ft | 18 kts | 237° |
| 2026-05-08 12:37 | 23.07525 | 72.62983 | 186 ft | 33 kts | 226° |
| 2026-05-08 12:37 | 23.07459 | 72.62851 | 186 ft | 17 kts | 299° |
| 2026-05-08 12:37 | 23.07510 | 72.62740 | 187 ft | 17 kts | 240° |
| 2026-05-08 12:37 | 23.07430 | 72.62647 | 186 ft | 13 kts | 240° |
| 2026-05-08 12:38 | 23.07442 | 72.62585 | 186 ft | 8 kts | 311° |
| 2026-05-08 12:38 | 23.07450 | 72.62575 | 186 ft | 1 kts | 313° |
| 2026-05-08 12:38 | 23.07458 | 72.62566 | 186 ft | 0 kts | 315° |
| 2026-05-08 12:59 | 23.07457 | 72.62566 | 186 ft | 0 kts | 315° |
| 2026-05-08 13:48 | 23.07459 | 72.62565 | 186 ft | 0 kts | 315° |
| 2026-05-08 13:49 | 23.07467 | 72.62556 | 187 ft | 2 kts | 314° |
| 2026-05-08 13:49 | 23.07475 | 72.62546 | 187 ft | 0 kts | 313° |
| 2026-05-08 13:53 | 23.07475 | 72.62547 | 187 ft | 1 kts | 313° |
| 2026-05-08 13:53 | 23.07465 | 72.62559 | 187 ft | 2 kts | 315° |
| 2026-05-08 13:54 | 23.07454 | 72.62570 | 186 ft | 2 kts | 315° |
| 2026-05-08 13:54 | 23.07443 | 72.62582 | 186 ft | 2 kts | 315° |
| 2026-05-08 13:54 | 23.07433 | 72.62594 | 186 ft | 2 kts | 321° |
| 2026-05-08 13:54 | 23.07419 | 72.62601 | 186 ft | 2 kts | 344° |
| 2026-05-08 13:55 | 23.07405 | 72.62604 | 186 ft | 2 kts | 2° |
| 2026-05-08 13:55 | 23.07390 | 72.62601 | 186 ft | 2 kts | 20° |
| 2026-05-08 13:55 | 23.07371 | 72.62588 | 186 ft | 1 kts | 47° |
| 2026-05-08 13:56 | 23.07370 | 72.62585 | 186 ft | 0 kts | 45° |
| 2026-05-08 14:21 | 23.07379 | 72.62595 | 186 ft | 7 kts | 44° |
| 2026-05-08 14:21 | 23.07466 | 72.62687 | 186 ft | 20 kts | 43° |
| 2026-05-08 14:21 | 23.07489 | 72.62812 | 187 ft | 20 kts | 133° |
| 2026-05-08 14:21 | 23.07484 | 72.62938 | 186 ft | 19 kts | 49° |
| 2026-05-08 14:22 | 23.07584 | 72.63045 | 185 ft | 20 kts | 44° |
| 2026-05-08 14:22 | 23.07689 | 72.63158 | 187 ft | 24 kts | 46° |
| 2026-05-08 14:22 | 23.07832 | 72.63316 | 189 ft | 34 kts | 46° |
| 2026-05-08 14:22 | 23.07824 | 72.63473 | 189 ft | 24 kts | 118° |
| 2026-05-08 14:23 | 23.07888 | 72.63616 | 190 ft | 22 kts | 44° |
| 2026-05-08 14:23 | 23.08001 | 72.63738 | 190 ft | 23 kts | 45° |
| 2026-05-08 14:23 | 23.08117 | 72.63862 | 190 ft | 23 kts | 45° |
| 2026-05-08 14:23 | 23.08238 | 72.63991 | 190 ft | 24 kts | 44° |
| 2026-05-08 14:24 | 23.08362 | 72.64127 | 189 ft | 25 kts | 52° |
| 2026-05-08 14:24 | 23.08415 | 72.64168 | 189 ft | 15 kts | 186° |
| 2026-05-08 14:24 | 23.08351 | 72.64116 | 189 ft | 0 kts | 225° |
| 2026-05-08 14:25 | 23.08348 | 72.64113 | 189 ft | 3 kts | 225° |
| 2026-05-08 14:25 | 23.08236 | 72.63994 | 190 ft | 61 kts | 225° |
| 2026-05-08 14:25 | 23.07654 | 72.63363 | 188 ft | 169 kts | 223° |
| 2026-05-08 14:26 | 23.06667 | 72.62354 | 797 ft | 207 kts | 227° |
| 2026-05-08 14:26 | 23.05670 | 72.61303 | 1797 ft | 221 kts | 222° |
| 2026-05-08 14:26 | 23.04154 | 72.60699 | 2909 ft | 242 kts | 187° |
| 2026-05-08 14:26 | 23.02409 | 72.60905 | 3315 ft | 277 kts | 164° |
| 2026-05-08 14:27 | 23.00695 | 72.61997 | 2979 ft | 286 kts | 139° |
| 2026-05-08 14:27 | 22.99332 | 72.63525 | 2804 ft | 283 kts | 133° |
| 2026-05-08 14:27 | 22.97992 | 72.65126 | 2777 ft | 284 kts | 133° |
| 2026-05-08 14:27 | 22.96632 | 72.66678 | 2772 ft | 285 kts | 135° |
| 2026-05-08 14:28 | 22.95179 | 72.68258 | 3285 ft | 312 kts | 136° |
| 2026-05-08 14:28 | 22.93624 | 72.69920 | 4660 ft | 320 kts | 136° |
| 2026-05-08 14:28 | 22.92066 | 72.71584 | 6088 ft | 324 kts | 136° |
| 2026-05-08 14:28 | 22.90476 | 72.73283 | 7534 ft | 329 kts | 135° |
| 2026-05-08 14:29 | 22.88874 | 72.75017 | 8994 ft | 332 kts | 132° |
| 2026-05-08 14:29 | 22.87460 | 72.76920 | 9780 ft | 312 kts | 120° |
| 2026-05-08 14:29 | 22.86678 | 72.79047 | 9671 ft | 303 kts | 103° |
| 2026-05-08 14:29 | 22.86346 | 72.81255 | 9612 ft | 289 kts | 96° |
| 2026-05-08 14:30 | 22.86087 | 72.83415 | 9743 ft | 292 kts | 98° |
| 2026-05-08 14:30 | 22.85767 | 72.85580 | 9761 ft | 291 kts | 99° |
| 2026-05-08 14:30 | 22.85403 | 72.87733 | 9760 ft | 291 kts | 100° |
| 2026-05-08 14:30 | 22.85045 | 72.89870 | 9707 ft | 289 kts | 95° |
| 2026-05-08 14:31 | 22.85745 | 72.91773 | 9725 ft | 284 kts | 32° |
| 2026-05-08 14:31 | 22.87597 | 72.91668 | 9819 ft | 289 kts | 319° |
| 2026-05-08 14:31 | 22.88378 | 72.89658 | 9758 ft | 297 kts | 281° |
| 2026-05-08 14:32 | 22.91265 | 72.87428 | 9740 ft | 293 kts | 22° |
| 2026-05-08 14:32 | 22.92320 | 72.89082 | 9846 ft | 285 kts | 90° |
| 2026-05-08 14:32 | 22.92097 | 72.91183 | 9770 ft | 280 kts | 97° |
| 2026-05-08 14:32 | 22.91867 | 72.93264 | 9783 ft | 286 kts | 96° |
| 2026-05-08 14:33 | 22.91666 | 72.95431 | 9849 ft | 291 kts | 94° |
| 2026-05-08 14:33 | 22.91555 | 72.97656 | 9914 ft | 297 kts | 91° |
| 2026-05-08 14:33 | 22.91518 | 72.99904 | 9998 ft | 300 kts | 89° |
| 2026-05-08 14:33 | 22.91517 | 73.02147 | 9757 ft | 296 kts | 89° |
| 2026-05-08 14:34 | 22.91559 | 73.04283 | 10042 ft | 274 kts | 87° |
| 2026-05-08 14:34 | 22.91648 | 73.06409 | 9830 ft | 282 kts | 86° |
| 2026-05-08 14:34 | 22.91796 | 73.08543 | 9665 ft | 289 kts | 84° |
| 2026-05-08 14:34 | 22.92045 | 73.10688 | 9874 ft | 283 kts | 81° |
| 2026-05-08 14:35 | 22.92178 | 73.12818 | 9846 ft | 293 kts | 102° |
| 2026-05-08 14:35 | 22.91061 | 73.14642 | 9885 ft | 303 kts | 146° |
| 2026-05-08 14:35 | 22.88994 | 73.15062 | 9921 ft | 313 kts | 191° |
| 2026-05-08 14:35 | 22.87185 | 73.13803 | 9976 ft | 312 kts | 233° |
| 2026-05-08 14:36 | 22.86505 | 73.11670 | 10042 ft | 304 kts | 269° |
| 2026-05-08 14:36 | 22.86523 | 73.09394 | 10004 ft | 291 kts | 272° |
| 2026-05-08 14:36 | 22.86625 | 73.07172 | 9599 ft | 297 kts | 275° |
| 2026-05-08 14:36 | 22.86798 | 73.05015 | 9697 ft | 285 kts | 276° |
| 2026-05-08 14:37 | 22.86970 | 73.02907 | 9780 ft | 282 kts | 274° |
| 2026-05-08 14:37 | 22.87079 | 73.00752 | 9768 ft | 289 kts | 272° |
| 2026-05-08 14:37 | 22.87128 | 72.98544 | 9758 ft | 295 kts | 270° |
| 2026-05-08 14:37 | 22.87078 | 72.96319 | 9722 ft | 300 kts | 267° |
| 2026-05-08 14:38 | 22.86878 | 72.94055 | 9852 ft | 299 kts | 263° |
| 2026-05-08 14:38 | 22.86746 | 72.91814 | 9875 ft | 302 kts | 270° |
| 2026-05-08 14:38 | 22.86722 | 72.89488 | 9751 ft | 310 kts | 269° |
| 2026-05-08 14:38 | 22.86535 | 72.87186 | 9763 ft | 308 kts | 261° |
| 2026-05-08 14:39 | 22.86024 | 72.84956 | 9763 ft | 303 kts | 251° |
| 2026-05-08 14:39 | 22.85179 | 72.82848 | 9763 ft | 304 kts | 242° |
| 2026-05-08 14:39 | 22.84030 | 72.80931 | 9763 ft | 304 kts | 232° |
| 2026-05-08 14:39 | 22.82676 | 72.79200 | 9762 ft | 302 kts | 227° |
| 2026-05-08 14:40 | 22.81252 | 72.77519 | 9760 ft | 302 kts | 226° |
| 2026-05-08 14:40 | 22.79819 | 72.75848 | 9760 ft | 302 kts | 226° |
| 2026-05-08 14:40 | 22.78389 | 72.74181 | 9758 ft | 301 kts | 226° |
| 2026-05-08 14:40 | 22.76966 | 72.72521 | 9756 ft | 301 kts | 226° |
| 2026-05-08 14:41 | 22.75538 | 72.70854 | 9757 ft | 300 kts | 226° |
| 2026-05-08 14:41 | 22.74111 | 72.69186 | 9759 ft | 299 kts | 226° |
| 2026-05-08 14:41 | 22.72709 | 72.67546 | 9758 ft | 301 kts | 226° |
| 2026-05-08 14:41 | 22.71278 | 72.65873 | 9757 ft | 303 kts | 226° |
| 2026-05-08 14:42 | 22.69830 | 72.64185 | 9758 ft | 304 kts | 226° |
| 2026-05-08 14:42 | 22.68390 | 72.62509 | 9758 ft | 305 kts | 226° |
| 2026-05-08 14:42 | 22.66941 | 72.60828 | 9758 ft | 305 kts | 227° |
| 2026-05-08 14:42 | 22.65493 | 72.59163 | 9759 ft | 304 kts | 226° |
| 2026-05-08 14:43 | 22.64036 | 72.57491 | 9760 ft | 304 kts | 226° |
| 2026-05-08 14:43 | 22.62580 | 72.55834 | 9760 ft | 305 kts | 227° |
| 2026-05-08 14:43 | 22.61099 | 72.54176 | 9759 ft | 299 kts | 227° |
| 2026-05-08 14:43 | 22.59654 | 72.52573 | 9760 ft | 301 kts | 226° |
| 2026-05-08 14:44 | 22.58210 | 72.50939 | 9756 ft | 302 kts | 226° |
| 2026-05-08 14:44 | 22.56772 | 72.49280 | 9751 ft | 301 kts | 226° |
| 2026-05-08 14:44 | 22.55348 | 72.47619 | 9751 ft | 301 kts | 226° |
| 2026-05-08 14:44 | 22.53926 | 72.45957 | 9750 ft | 301 kts | 226° |
| 2026-05-08 14:45 | 22.52493 | 72.44286 | 9749 ft | 304 kts | 227° |
| 2026-05-08 14:45 | 22.51042 | 72.42632 | 9755 ft | 303 kts | 226° |
| 2026-05-08 14:45 | 22.49577 | 72.40985 | 9752 ft | 303 kts | 227° |
| 2026-05-08 14:45 | 22.48120 | 72.39364 | 9767 ft | 301 kts | 227° |
| 2026-05-08 14:46 | 22.46636 | 72.37721 | 9768 ft | 308 kts | 226° |
| 2026-05-08 14:46 | 22.45134 | 72.36081 | 9762 ft | 299 kts | 226° |
| 2026-05-08 14:46 | 22.43673 | 72.34493 | 9768 ft | 296 kts | 226° |
| 2026-05-08 14:46 | 22.42220 | 72.32912 | 9765 ft | 299 kts | 226° |
| 2026-05-08 14:47 | 22.40744 | 72.31312 | 9766 ft | 294 kts | 226° |
| 2026-05-08 14:47 | 22.39306 | 72.29747 | 9771 ft | 292 kts | 226° |
| 2026-05-08 14:47 | 22.37901 | 72.28205 | 9771 ft | 291 kts | 226° |
| 2026-05-08 14:47 | 22.36455 | 72.26611 | 9767 ft | 294 kts | 226° |
| 2026-05-08 14:48 | 22.35019 | 72.25040 | 9769 ft | 294 kts | 226° |
| 2026-05-08 14:48 | 22.33594 | 72.23486 | 9768 ft | 293 kts | 226° |
| 2026-05-08 14:48 | 22.32137 | 72.21900 | 9767 ft | 296 kts | 226° |
| 2026-05-08 14:48 | 22.30684 | 72.20325 | 9765 ft | 296 kts | 226° |
| 2026-05-08 14:49 | 22.29233 | 72.18755 | 9769 ft | 296 kts | 226° |
| 2026-05-08 14:49 | 22.27791 | 72.17195 | 9771 ft | 295 kts | 226° |
| 2026-05-08 14:49 | 22.26334 | 72.15620 | 9771 ft | 293 kts | 226° |
| 2026-05-08 14:49 | 22.24884 | 72.14049 | 9769 ft | 295 kts | 226° |
| 2026-05-08 14:50 | 22.23537 | 72.12400 | 9767 ft | 295 kts | 238° |
| 2026-05-08 14:50 | 22.22821 | 72.10358 | 9518 ft | 293 kts | 264° |
| 2026-05-08 14:50 | 22.23199 | 72.08294 | 9470 ft | 281 kts | 298° |
| 2026-05-08 14:50 | 22.24488 | 72.06686 | 9538 ft | 289 kts | 318° |
| 2026-05-08 14:51 | 22.26082 | 72.05312 | 9539 ft | 289 kts | 321° |
| 2026-05-08 14:51 | 22.27685 | 72.03995 | 9537 ft | 290 kts | 323° |
| 2026-05-08 14:51 | 22.29433 | 72.02938 | 9505 ft | 286 kts | 335° |
| 2026-05-08 14:51 | 22.31273 | 72.02149 | 9238 ft | 287 kts | 338° |
| 2026-05-08 14:52 | 22.33165 | 72.01403 | 9026 ft | 289 kts | 338° |
| 2026-05-08 14:52 | 22.63020 | 72.30970 | 8624 ft | 295 kts | 343° |
| 2026-05-08 14:52 | 22.64973 | 72.30302 | 8479 ft | 296 kts | 340° |
| 2026-05-08 14:53 | 22.66922 | 72.29565 | 8489 ft | 293 kts | 339° |
| 2026-05-08 14:53 | 22.68801 | 72.28818 | 8023 ft | 287 kts | 338° |
| 2026-05-08 14:53 | 22.70682 | 72.28037 | 7353 ft | 287 kts | 337° |
| 2026-05-08 14:53 | 22.72499 | 72.27251 | 6784 ft | 283 kts | 336° |
| 2026-05-08 14:54 | 22.74326 | 72.26497 | 6391 ft | 275 kts | 342° |
| 2026-05-08 14:54 | 22.76174 | 72.26334 | 6165 ft | 262 kts | 8° |
| 2026-05-08 14:54 | 22.77850 | 72.26966 | 5973 ft | 249 kts | 27° |
| 2026-05-08 14:54 | 22.79266 | 72.28003 | 5778 ft | 239 kts | 38° |
| 2026-05-08 14:55 | 22.80450 | 72.29256 | 5428 ft | 237 kts | 46° |
| 2026-05-08 14:55 | 22.81522 | 72.30593 | 5052 ft | 237 kts | 48° |
| 2026-05-08 14:55 | 22.82579 | 72.31961 | 4675 ft | 236 kts | 48° |
| 2026-05-08 14:55 | 22.83623 | 72.33309 | 4322 ft | 234 kts | 47° |
| 2026-05-08 14:56 | 22.84676 | 72.34663 | 3964 ft | 232 kts | 47° |
| 2026-05-08 14:56 | 22.85714 | 72.35994 | 3589 ft | 231 kts | 46° |
| 2026-05-08 14:56 | 22.86753 | 72.37312 | 3225 ft | 230 kts | 46° |
| 2026-05-08 14:56 | 22.87794 | 72.38631 | 2834 ft | 230 kts | 46° |
| 2026-05-08 14:57 | 22.88822 | 72.39939 | 2477 ft | 229 kts | 45° |
| 2026-05-08 14:57 | 22.89842 | 72.41245 | 2125 ft | 228 kts | 45° |
| 2026-05-08 14:57 | 22.90865 | 72.42556 | 1839 ft | 225 kts | 45° |
| 2026-05-08 14:57 | 22.91876 | 72.43850 | 1795 ft | 225 kts | 45° |
| 2026-05-08 14:58 | 22.92893 | 72.45152 | 1792 ft | 226 kts | 45° |
| 2026-05-08 14:58 | 22.93910 | 72.46455 | 1791 ft | 227 kts | 45° |
| 2026-05-08 14:58 | 22.94933 | 72.47768 | 1792 ft | 226 kts | 45° |
| 2026-05-08 14:58 | 22.95948 | 72.49069 | 1793 ft | 222 kts | 46° |
| 2026-05-08 14:59 | 22.96903 | 72.50301 | 1792 ft | 207 kts | 45° |
| 2026-05-08 14:59 | 22.98619 | 72.52511 | 1791 ft | 182 kts | 44° |
| 2026-05-08 14:59 | 22.99438 | 72.53559 | 1791 ft | 181 kts | 44° |
| 2026-05-08 15:00 | 23.00252 | 72.54604 | 1790 ft | 181 kts | 44° |
| 2026-05-08 15:00 | 23.01037 | 72.55610 | 1817 ft | 166 kts | 43° |
| 2026-05-08 15:00 | 23.01798 | 72.56542 | 1815 ft | 163 kts | 42° |
| 2026-05-08 15:00 | 23.02554 | 72.57479 | 1813 ft | 163 kts | 43° |
| 2026-05-08 15:01 | 23.03297 | 72.58406 | 1668 ft | 164 kts | 42° |
| 2026-05-08 15:01 | 23.04059 | 72.59340 | 1434 ft | 163 kts | 43° |
| 2026-05-08 15:01 | 23.04794 | 72.60263 | 1204 ft | 162 kts | 45° |
| 2026-05-08 15:01 | 23.05534 | 72.61208 | 983 ft | 169 kts | 46° |
| 2026-05-08 15:02 | 23.06302 | 72.62146 | 1388 ft | 163 kts | 42° |
| 2026-05-08 15:02 | 23.07133 | 72.63120 | 1477 ft | 186 kts | 40° |
| 2026-05-08 15:02 | 23.08157 | 72.63939 | 2185 ft | 193 kts | 22° |
| 2026-05-08 15:02 | 23.09381 | 72.64574 | 2975 ft | 200 kts | 22° |
| 2026-05-08 15:03 | 23.10711 | 72.65353 | 2975 ft | 240 kts | 27° |
| 2026-05-08 15:03 | 23.12116 | 72.66636 | 2595 ft | 290 kts | 49° |
| 2026-05-08 15:03 | 23.12924 | 72.68617 | 2103 ft | 287 kts | 79° |
| 2026-05-08 15:03 | 23.12791 | 72.70744 | 1778 ft | 273 kts | 105° |
| 2026-05-08 15:04 | 23.12187 | 72.72554 | 1962 ft | 251 kts | 113° |
| 2026-05-08 15:04 | 23.11460 | 72.74262 | 1961 ft | 245 kts | 115° |
| 2026-05-08 15:04 | 23.10749 | 72.75911 | 1986 ft | 242 kts | 115° |
| 2026-05-08 15:04 | 23.10034 | 72.77609 | 1897 ft | 247 kts | 114° |
| 2026-05-08 15:05 | 23.09334 | 72.79274 | 1974 ft | 242 kts | 114° |
| 2026-05-08 15:05 | 23.08629 | 72.80932 | 1989 ft | 241 kts | 114° |
| 2026-05-08 15:05 | 23.07921 | 72.82591 | 1992 ft | 240 kts | 114° |
| 2026-05-08 15:05 | 23.07219 | 72.84235 | 1993 ft | 239 kts | 115° |
| 2026-05-08 15:06 | 23.06526 | 72.85868 | 1998 ft | 239 kts | 114° |
| 2026-05-08 15:06 | 23.05821 | 72.87534 | 1997 ft | 240 kts | 114° |
| 2026-05-08 15:06 | 23.05125 | 72.89166 | 1999 ft | 240 kts | 114° |
| 2026-05-08 15:06 | 23.04415 | 72.90817 | 1993 ft | 239 kts | 114° |
| 2026-05-08 15:07 | 23.03707 | 72.92459 | 1991 ft | 240 kts | 114° |
| 2026-05-08 15:07 | 23.03117 | 72.94155 | 1991 ft | 241 kts | 101° |
| 2026-05-08 15:07 | 23.02980 | 72.95937 | 1993 ft | 238 kts | 82° |
| 2026-05-08 15:07 | 23.03350 | 72.97669 | 1992 ft | 234 kts | 63° |
| 2026-05-08 15:08 | 23.04137 | 72.99194 | 1992 ft | 230 kts | 52° |
| 2026-05-08 15:08 | 23.04735 | 73.00152 | 1993 ft | 231 kts | 51° |
| 2026-05-08 15:08 | 23.05946 | 73.02071 | 1994 ft | 231 kts | 51° |
| 2026-05-08 15:08 | 23.06876 | 73.03480 | 1992 ft | 228 kts | 45° |
| 2026-05-08 15:09 | 23.08028 | 73.04671 | 1996 ft | 225 kts | 35° |
| 2026-05-08 15:09 | 23.09229 | 73.05732 | 1995 ft | 225 kts | 34° |
| 2026-05-08 15:09 | 23.10461 | 73.06808 | 1997 ft | 225 kts | 34° |
| 2026-05-08 15:09 | 23.11699 | 73.07831 | 1996 ft | 223 kts | 29° |
| 2026-05-08 15:10 | 23.13015 | 73.08719 | 1998 ft | 223 kts | 26° |
| 2026-05-08 15:10 | 23.14358 | 73.09582 | 1998 ft | 222 kts | 26° |
| 2026-05-08 15:10 | 23.15693 | 73.10447 | 1999 ft | 222 kts | 26° |
| 2026-05-08 15:10 | 23.17016 | 73.11311 | 1998 ft | 224 kts | 26° |
| 2026-05-08 15:11 | 23.18353 | 73.12187 | 2000 ft | 225 kts | 26° |
| 2026-05-08 15:11 | 23.19734 | 73.12945 | 1998 ft | 220 kts | 13° |
| 2026-05-08 15:11 | 23.21229 | 73.13215 | 2001 ft | 213 kts | 354° |
| 2026-05-08 15:11 | 23.22662 | 73.12931 | 2010 ft | 210 kts | 335° |
| 2026-05-08 15:12 | 23.23882 | 73.12106 | 1999 ft | 205 kts | 309° |
| 2026-05-08 15:12 | 23.24600 | 73.10779 | 2006 ft | 203 kts | 297° |
| 2026-05-08 15:12 | 23.25373 | 73.09495 | 2003 ft | 204 kts | 306° |
| 2026-05-08 15:12 | 23.26267 | 73.08292 | 2004 ft | 204 kts | 307° |
| 2026-05-08 15:13 | 23.27160 | 73.07089 | 2004 ft | 204 kts | 307° |
| 2026-05-08 15:13 | 23.28050 | 73.05884 | 2004 ft | 204 kts | 307° |
| 2026-05-08 15:13 | 23.28933 | 73.04654 | 2004 ft | 203 kts | 303° |
| 2026-05-08 15:13 | 23.29568 | 73.03283 | 2006 ft | 205 kts | 292° |
| 2026-05-08 15:14 | 23.30079 | 73.01836 | 2006 ft | 204 kts | 291° |
| 2026-05-08 15:14 | 23.30589 | 73.00397 | 2005 ft | 205 kts | 291° |
| 2026-05-08 15:14 | 23.31112 | 72.98945 | 2007 ft | 204 kts | 291° |
| 2026-05-08 15:14 | 23.31627 | 72.97523 | 2008 ft | 203 kts | 291° |
| 2026-05-08 15:15 | 23.32146 | 72.96086 | 2004 ft | 202 kts | 291° |
| 2026-05-08 15:15 | 23.32579 | 72.94623 | 2005 ft | 204 kts | 281° |
| 2026-05-08 15:15 | 23.32581 | 72.93082 | 2006 ft | 206 kts | 264° |
| 2026-05-08 15:15 | 23.32295 | 72.91584 | 2009 ft | 197 kts | 259° |
| 2026-05-08 15:16 | 23.31883 | 72.90202 | 2004 ft | 186 kts | 251° |
| 2026-05-08 15:16 | 23.31258 | 72.88972 | 2012 ft | 187 kts | 240° |
| 2026-05-08 15:16 | 23.30491 | 72.87907 | 2009 ft | 173 kts | 234° |
| 2026-05-08 15:16 | 23.29682 | 72.86942 | 2004 ft | 171 kts | 232° |
| 2026-05-08 15:17 | 23.28859 | 72.86009 | 2002 ft | 171 kts | 231° |
| 2026-05-08 15:17 | 23.28013 | 72.85082 | 2002 ft | 172 kts | 230° |
| 2026-05-08 15:17 | 23.27158 | 72.84161 | 2000 ft | 172 kts | 230° |
| 2026-05-08 15:17 | 23.26308 | 72.83253 | 2000 ft | 171 kts | 230° |
| 2026-05-08 15:18 | 23.25464 | 72.82346 | 2001 ft | 172 kts | 230° |
| 2026-05-08 15:18 | 23.24605 | 72.81423 | 2000 ft | 171 kts | 230° |
| 2026-05-08 15:18 | 23.23757 | 72.80521 | 2001 ft | 171 kts | 230° |
| 2026-05-08 15:18 | 23.22896 | 72.79601 | 2003 ft | 173 kts | 230° |
| 2026-05-08 15:19 | 23.22042 | 72.78693 | 2005 ft | 173 kts | 230° |
| 2026-05-08 15:19 | 23.21186 | 72.77781 | 2007 ft | 172 kts | 230° |
| 2026-05-08 15:19 | 23.20324 | 72.76859 | 2007 ft | 173 kts | 230° |
| 2026-05-08 15:19 | 23.19465 | 72.75947 | 2006 ft | 172 kts | 231° |
| 2026-05-08 15:20 | 23.18602 | 72.75016 | 2005 ft | 175 kts | 231° |
| 2026-05-08 15:20 | 23.17742 | 72.74099 | 2005 ft | 174 kts | 230° |
| 2026-05-08 15:20 | 23.16884 | 72.73197 | 2018 ft | 164 kts | 230° |
| 2026-05-08 15:20 | 23.16078 | 72.72342 | 2010 ft | 161 kts | 230° |
| 2026-05-08 15:21 | 23.15273 | 72.71491 | 1852 ft | 160 kts | 231° |
| 2026-05-08 15:21 | 23.14497 | 72.70660 | 1672 ft | 157 kts | 230° |
| 2026-05-08 15:21 | 23.13720 | 72.69834 | 1466 ft | 156 kts | 230° |
| 2026-05-08 15:21 | 23.12943 | 72.69008 | 1268 ft | 155 kts | 229° |
| 2026-05-08 15:22 | 23.12177 | 72.68196 | 1072 ft | 154 kts | 227° |
| 2026-05-08 15:22 | 23.11394 | 72.67402 | 883 ft | 153 kts | 226° |
| 2026-05-08 15:22 | 23.10619 | 72.66592 | 705 ft | 160 kts | 226° |
| 2026-05-08 15:22 | 23.09833 | 72.65726 | 458 ft | 160 kts | 226° |
| 2026-05-08 15:23 | 23.09043 | 72.64871 | 270 ft | 154 kts | 225° |
| 2026-05-08 15:23 | 23.08360 | 72.64123 | 189 ft | 99 kts | 225° |
| 2026-05-08 15:23 | 23.08105 | 72.63850 | 190 ft | 16 kts | 223° |
| 2026-05-08 15:23 | 23.08003 | 72.63748 | 190 ft | 27 kts | 224° |
| 2026-05-08 15:24 | 23.07911 | 72.63654 | 190 ft | 0 kts | 223° |